Time;durP1;ratioP1;P1;durP2;ratioP2;P2;SDS_P1;SDS_P2;PMS_P1;PMS_P2;Temp;Humidity;BMP_temperature;BMP_pressure;BME280_temperature;BME280_humidity;BME280_pressure;Samples;Min_cycle;Max_cycle;Signal;HPM_P1;HPM_P2
2022/08/04 00:01:27;;;;;;;7.90;4.10;;;19.60;99.90;;;;;;5053362;28;20041;-72
2022/08/04 00:04:13;;;;;;;10.60;4.28;;;19.70;99.90;;;;;;5060903;28;20480;-72
2022/08/04 00:07:11;;;;;;;10.05;4.57;;;19.70;99.90;;;;;;5057900;28;20139;-72
2022/08/04 00:09:49;;;;;;;9.95;4.68;;;19.60;99.90;;;;;;5064213;28;20084;-72
2022/08/04 00:12:16;;;;;;;11.48;4.35;;;19.70;99.90;;;;;;5046498;28;20083;-72
2022/08/04 00:14:50;;;;;;;9.05;4.55;;;19.60;99.90;;;;;;5061990;28;20045;-72
2022/08/04 00:17:31;;;;;;;9.75;4.45;;;19.60;99.90;;;;;;5057031;28;20051;-72
2022/08/04 00:20:00;;;;;;;9.05;4.63;;;19.60;99.90;;;;;;5061037;28;20120;-71
2022/08/04 00:22:29;;;;;;;10.55;4.45;;;19.50;99.90;;;;;;5054893;28;20045;-71
2022/08/04 00:24:55;;;;;;;8.23;4.03;;;19.60;99.90;;;;;;5061570;28;20146;-71
2022/08/04 00:27:21;;;;;;;6.78;4.13;;;19.60;99.90;;;;;;5061003;28;20416;-71
2022/08/04 00:29:47;;;;;;;10.10;4.30;;;19.50;99.90;;;;;;5060257;28;20047;-71
2022/08/04 00:32:13;;;;;;;9.60;5.10;;;19.60;99.90;;;;;;5046611;28;20116;-71
2022/08/04 00:34:39;;;;;;;8.48;4.13;;;19.60;99.90;;;;;;5061522;28;20570;-71
2022/08/04 00:37:06;;;;;;;10.93;5.13;;;19.50;99.90;;;;;;5046977;28;20136;-71
2022/08/04 00:39:33;;;;;;;8.68;4.53;;;19.50;99.90;;;;;;5058567;28;20051;-71
2022/08/04 00:42:18;;;;;;;9.40;4.60;;;19.50;99.90;;;;;;5055818;28;20048;-71
2022/08/04 00:45:05;;;;;;;10.73;4.80;;;19.50;99.90;;;;;;5058597;28;20064;-72
2022/08/04 00:48:03;;;;;;;10.40;5.10;;;19.50;99.90;;;;;;5064389;28;20550;-72
2022/08/04 00:50:43;;;;;;;11.13;4.90;;;19.50;99.90;;;;;;5060028;28;20657;-73
2022/08/04 00:53:17;;;;;;;9.40;4.22;;;19.50;99.90;;;;;;5056104;28;20102;-72
2022/08/04 00:55:52;;;;;;;8.85;4.60;;;19.50;99.90;;;;;;5062026;28;20060;-72
2022/08/04 00:58:34;;;;;;;8.20;4.80;;;19.50;99.90;;;;;;5059640;28;20648;-72
2022/08/04 01:01:07;;;;;;;8.23;4.82;;;19.50;99.90;;;;;;5063198;28;20560;-70
2022/08/04 01:03:57;;;;;;;8.40;4.20;;;19.40;99.90;;;;;;5060206;28;20049;-70
2022/08/04 01:06:34;;;;;;;10.75;4.38;;;19.40;99.90;;;;;;5061876;28;20047;-70
2022/08/04 01:09:18;;;;;;;10.63;4.57;;;19.40;99.90;;;;;;5067762;28;20040;-70
2022/08/04 01:12:12;;;;;;;7.35;4.38;;;19.40;99.90;;;;;;5063278;28;20044;-70
2022/08/04 01:15:16;;;;;;;10.93;5.07;;;19.40;99.90;;;;;;5042281;28;20079;-70
2022/08/04 01:18:24;;;;;;;10.32;4.63;;;19.40;99.90;;;;;;5047244;28;20072;-70
2022/08/04 01:21:16;;;;;;;9.15;5.18;;;19.40;99.90;;;;;;5042669;28;20052;-70
2022/08/04 01:24:06;;;;;;;7.68;4.63;;;19.30;99.90;;;;;;5059611;28;20045;-70
2022/08/04 01:27:10;;;;;;;7.38;4.22;;;19.30;99.90;;;;;;5059600;28;20040;-70
2022/08/04 01:29:57;;;;;;;7.53;4.10;;;19.30;99.90;;;;;;5054099;28;20110;-70
2022/08/04 01:32:35;;;;;;;9.93;5.30;;;19.30;99.90;;;;;;5054485;28;20055;-70
2022/08/04 01:35:06;;;;;;;8.40;4.68;;;19.20;99.90;;;;;;5051518;28;20711;-70
2022/08/04 01:37:50;;;;;;;5.20;4.22;;;19.20;99.90;;;;;;5057295;28;20400;-70
2022/08/04 01:40:16;;;;;;;8.60;4.55;;;19.20;99.90;;;;;;5054815;28;20789;-70
2022/08/04 01:42:44;;;;;;;9.35;4.65;;;19.20;99.90;;;;;;5061600;28;20119;-70
2022/08/04 01:45:12;;;;;;;11.48;5.13;;;19.20;99.90;;;;;;5044259;28;20048;-70
2022/08/04 01:47:42;;;;;;;12.10;5.70;;;19.10;99.90;;;;;;5061042;28;20044;-70
2022/08/04 01:50:12;;;;;;;8.05;3.90;;;19.10;99.90;;;;;;5045540;28;20065;-70
2022/08/04 01:52:40;;;;;;;7.25;4.65;;;19.10;99.90;;;;;;5066259;28;20060;-70
2022/08/04 01:55:09;;;;;;;6.80;4.10;;;19.00;99.90;;;;;;5062355;28;20060;-70
2022/08/04 01:57:41;;;;;;;9.80;5.03;;;19.00;99.90;;;;;;5039776;28;20451;-70
2022/08/04 02:00:08;;;;;;;11.23;4.38;;;19.00;99.90;;;;;;5051903;28;20041;-70
2022/08/04 02:02:34;;;;;;;7.55;4.10;;;19.00;99.90;;;;;;5062605;28;20064;-70
2022/08/04 02:05:00;;;;;;;8.80;4.10;;;19.00;99.90;;;;;;5063553;28;20201;-70
2022/08/04 02:07:42;;;;;;;5.57;3.70;;;19.00;99.90;;;;;;5062405;28;20488;-70
2022/08/04 02:10:22;;;;;;;6.53;3.90;;;19.00;99.90;;;;;;5059846;28;20044;-70
2022/08/04 02:13:06;;;;;;;8.80;3.63;;;18.90;99.90;;;;;;5060928;28;20044;-70
2022/08/04 02:15:35;;;;;;;9.55;4.15;;;18.90;99.90;;;;;;5058474;28;20058;-70
2022/08/04 02:18:25;;;;;;;7.93;3.95;;;18.90;99.90;;;;;;5064379;28;20211;-70
2022/08/04 02:20:58;;;;;;;5.90;3.38;;;18.90;99.90;;;;;;5063928;28;20073;-70
2022/08/04 02:23:45;;;;;;;6.97;3.95;;;18.80;99.90;;;;;;5062932;28;20610;-70
2022/08/04 02:26:19;;;;;;;8.52;4.25;;;18.80;99.90;;;;;;5057835;28;20127;-70
2022/08/04 02:29:19;;;;;;;6.35;4.15;;;18.80;99.90;;;;;;5063718;28;20472;-70
2022/08/04 02:31:51;;;;;;;10.30;4.60;;;18.80;99.90;;;;;;5065131;28;20036;-70
2022/08/04 02:34:43;;;;;;;10.20;4.00;;;18.80;99.90;;;;;;5066866;28;20052;-70
2022/08/04 02:37:10;;;;;;;8.02;4.25;;;18.70;99.90;;;;;;5064458;28;20045;-70
2022/08/04 02:39:36;;;;;;;5.30;3.78;;;18.70;99.90;;;;;;5062951;28;20464;-70
2022/08/04 02:42:04;;;;;;;6.85;4.30;;;18.70;99.90;;;;;;5066765;28;20025;-70
2022/08/04 02:44:31;;;;;;;7.90;4.75;;;18.70;99.90;;;;;;5061182;28;20047;-70
2022/08/04 02:46:59;;;;;;;7.88;4.57;;;18.60;99.90;;;;;;5043850;28;20503;-70
2022/08/04 02:49:26;;;;;;;9.95;4.75;;;18.60;99.90;;;;;;5059556;28;20049;-70
2022/08/04 02:51:57;;;;;;;8.75;5.20;;;18.60;99.90;;;;;;5044566;28;20032;-70
2022/08/04 02:54:27;;;;;;;11.00;5.07;;;18.60;99.90;;;;;;5062018;28;20096;-70
2022/08/04 02:56:56;;;;;;;12.30;5.25;;;18.60;99.90;;;;;;5062868;28;20044;-70
2022/08/04 02:59:26;;;;;;;9.70;5.45;;;18.60;99.90;;;;;;5064716;28;20033;-70
2022/08/04 03:01:55;;;;;;;13.38;6.20;;;18.60;99.90;;;;;;5047297;28;20067;-69
2022/08/04 03:04:39;;;;;;;7.18;5.05;;;18.60;99.90;;;;;;5062509;28;20033;-69
2022/08/04 03:07:34;;;;;;;6.27;5.07;;;18.50;99.90;;;;;;5062086;28;20033;-70
2022/08/04 03:10:42;;;;;;;10.10;5.10;;;18.50;99.90;;;;;;5063401;28;20091;-70
2022/08/04 03:13:29;;;;;;;8.95;4.88;;;18.50;99.90;;;;;;5056240;28;20063;-70
2022/08/04 03:16:13;;;;;;;6.53;4.68;;;18.40;99.90;;;;;;5052501;28;20052;-70
2022/08/04 03:19:20;;;;;;;6.15;4.50;;;18.40;99.90;;;;;;5062868;28;20036;-70
2022/08/04 03:22:14;;;;;;;9.25;5.45;;;18.40;99.90;;;;;;5063711;28;20056;-70
2022/08/04 03:25:00;;;;;;;7.65;5.40;;;18.40;99.90;;;;;;5061774;28;20083;-70
2022/08/04 03:27:52;;;;;;;10.40;5.68;;;18.40;99.90;;;;;;5058792;28;20037;-70
2022/08/04 03:30:23;;;;;;;12.27;5.90;;;18.40;99.90;;;;;;5057356;28;20400;-69
2022/08/04 03:33:22;;;;;;;10.05;5.80;;;18.40;99.90;;;;;;5062230;28;20055;-69
2022/08/04 03:36:07;;;;;;;8.57;5.45;;;18.40;99.90;;;;;;5051989;28;20044;-69
2022/08/04 03:38:59;;;;;;;8.13;5.20;;;18.40;99.90;;;;;;5066373;28;20060;-69
2022/08/04 03:41:51;;;;;;;9.30;5.47;;;18.40;99.90;;;;;;5061248;28;20087;-70
2022/08/04 03:44:39;;;;;;;10.23;5.80;;;18.40;99.90;;;;;;5058072;28;20432;-70
2022/08/04 03:47:34;;;;;;;6.38;5.15;;;18.30;99.90;;;;;;5062750;28;20052;-70
2022/08/04 03:50:33;;;;;;;9.38;4.88;;;18.30;99.90;;;;;;5070337;28;20129;-70
2022/08/04 03:53:23;;;;;;;8.35;4.68;;;18.30;99.90;;;;;;5059007;28;20429;-70
2022/08/04 03:56:11;;;;;;;7.32;5.53;;;18.30;99.90;;;;;;5050262;28;20048;-70
2022/08/04 03:58:36;;;;;;;6.78;5.25;;;18.30;99.90;;;;;;5058410;28;20045;-70
2022/08/04 04:01:12;;;;;;;6.97;4.47;;;18.30;99.90;;;;;;5059126;28;20044;-70
2022/08/04 04:04:32;;;;;;;7.68;4.85;;;18.30;99.90;;;;;;5044882;28;20049;-70
2022/08/04 04:07:19;;;;;;;7.43;4.50;;;18.30;99.90;;;;;;5025682;28;20055;-70
2022/08/04 04:10:18;;;;;;;7.13;4.80;;;18.20;99.90;;;;;;5074038;28;20057;-71
2022/08/04 04:13:05;;;;;;;9.35;5.50;;;18.30;99.90;;;;;;5060149;28;20037;-71
2022/08/04 04:15:49;;;;;;;7.93;5.00;;;18.30;99.90;;;;;;5064095;28;20063;-71
2022/08/04 04:18:35;;;;;;;9.38;5.03;;;18.30;99.90;;;;;;5061909;28;20041;-71
2022/08/04 04:21:39;;;;;;;7.20;5.00;;;18.20;99.90;;;;;;5055775;28;20461;-71
2022/08/04 04:24:45;;;;;;;9.70;5.38;;;18.30;99.90;;;;;;5059518;28;20660;-72
2022/08/04 04:27:33;;;;;;;7.10;5.30;;;18.30;99.90;;;;;;5060880;28;20044;-72
2022/08/04 04:30:06;;;;;;;11.70;6.15;;;18.30;99.90;;;;;;5062079;28;20143;-72
2022/08/04 04:33:02;;;;;;;10.73;6.35;;;18.30;99.90;;;;;;5048255;28;20528;-72
2022/08/04 04:35:45;;;;;;;10.32;5.97;;;18.30;99.90;;;;;;5060764;28;20062;-72
2022/08/04 04:38:47;;;;;;;12.40;6.55;;;18.30;99.90;;;;;;5051814;28;20447;-72
2022/08/04 04:41:43;;;;;;;10.98;6.95;;;18.30;99.90;;;;;;5065358;28;20603;-72
2022/08/04 04:44:35;;;;;;;10.65;6.93;;;18.30;99.90;;;;;;5053224;28;20037;-72
2022/08/04 04:47:12;;;;;;;11.73;7.07;;;18.40;99.90;;;;;;5058284;28;20051;-72
2022/08/04 04:49:53;;;;;;;7.68;5.95;;;18.40;99.90;;;;;;5058101;28;20063;-72
2022/08/04 04:52:37;;;;;;;8.75;6.93;;;18.40;99.90;;;;;;5060192;28;20063;-72
2022/08/04 04:55:16;;;;;;;7.93;6.18;;;18.40;99.90;;;;;;5047703;28;20045;-72
2022/08/04 04:57:45;;;;;;;8.77;6.68;;;18.50;99.90;;;;;;5047401;28;20697;-72
2022/08/04 05:00:12;;;;;;;9.07;7.30;;;18.50;99.90;;;;;;5058880;28;20044;-72
2022/08/04 05:02:50;;;;;;;11.32;7.18;;;18.50;99.90;;;;;;5060444;28;20076;-72
2022/08/04 05:05:53;;;;;;;11.07;7.85;;;18.60;99.90;;;;;;5055593;28;20044;-72
2022/08/04 05:08:29;;;;;;;9.60;7.25;;;18.60;99.90;;;;;;5050163;28;20119;-72
2022/08/04 05:11:26;;;;;;;11.88;7.80;;;18.70;99.90;;;;;;5054702;28;20045;-72
2022/08/04 05:14:27;;;;;;;14.10;7.78;;;18.80;99.90;;;;;;5048952;28;20109;-72
2022/08/04 05:16:57;;;;;;;16.10;8.50;;;18.90;99.90;;;;;;5050273;28;20376;-72
2022/08/04 05:19:47;;;;;;;14.07;7.78;;;19.00;99.90;;;;;;5046125;28;20045;-72
2022/08/04 05:22:25;;;;;;;11.68;8.57;;;19.10;99.90;;;;;;5062221;28;20048;-72
2022/08/04 05:24:59;;;;;;;11.23;7.05;;;19.30;99.90;;;;;;5063112;28;20391;-72
2022/08/04 05:27:36;;;;;;;10.30;7.63;;;19.30;99.90;;;;;;5040292;28;20425;-72
2022/08/04 05:30:04;;;;;;;14.40;8.50;;;19.40;99.90;;;;;;5059121;28;20048;-72
2022/08/04 05:32:42;;;;;;;10.48;7.65;;;19.50;99.90;;;;;;5050192;28;20194;-72
2022/08/04 05:35:32;;;;;;;13.07;8.20;;;19.60;99.90;;;;;;5053857;28;20041;-72
2022/08/04 05:38:00;;;;;;;13.52;8.48;;;19.70;99.90;;;;;;5064791;28;20094;-72
2022/08/04 05:40:26;;;;;;;12.20;7.75;;;19.80;99.90;;;;;;5057927;28;20049;-72
2022/08/04 05:42:54;;;;;;;12.20;8.57;;;19.90;99.90;;;;;;5056489;28;20044;-72
2022/08/04 05:45:22;;;;;;;14.68;8.57;;;20.00;99.90;;;;;;5063688;28;20107;-72
2022/08/04 05:47:50;;;;;;;13.30;9.25;;;20.10;99.90;;;;;;5064105;28;20044;-72
2022/08/04 05:50:17;;;;;;;12.18;8.40;;;20.20;99.90;;;;;;5066419;28;20044;-71
2022/08/04 05:52:43;;;;;;;11.98;8.02;;;20.30;99.90;;;;;;5058101;28;20133;-72
2022/08/04 05:55:11;;;;;;;13.32;7.63;;;20.30;99.90;;;;;;5063832;28;20037;-72
2022/08/04 05:57:40;;;;;;;9.85;7.53;;;20.40;99.90;;;;;;5056730;28;20047;-72
2022/08/04 06:00:07;;;;;;;13.55;8.02;;;20.50;99.90;;;;;;5062113;28;20044;-72
2022/08/04 06:02:34;;;;;;;14.13;8.52;;;20.60;99.90;;;;;;5067424;28;20048;-72
2022/08/04 06:05:01;;;;;;;10.55;7.88;;;20.80;99.90;;;;;;5066065;28;20048;-72
2022/08/04 06:07:27;;;;;;;10.02;7.60;;;20.90;99.90;;;;;;5048327;28;20049;-72
2022/08/04 06:09:53;;;;;;;14.52;8.40;;;21.10;99.90;;;;;;5069071;28;20084;-72
2022/08/04 06:12:33;;;;;;;10.25;7.55;;;21.20;99.90;;;;;;5046716;28;20064;-72
2022/08/04 06:15:00;;;;;;;11.15;8.43;;;21.40;99.90;;;;;;5066165;28;20683;-72
2022/08/04 06:17:36;;;;;;;11.82;7.55;;;21.50;99.90;;;;;;5060481;28;20061;-72
2022/08/04 06:20:04;;;;;;;9.85;7.80;;;21.60;99.90;;;;;;5059000;28;20683;-72
2022/08/04 06:22:32;;;;;;;11.77;7.97;;;21.80;99.90;;;;;;5061141;28;20040;-72
2022/08/04 06:25:00;;;;;;;12.25;7.70;;;21.90;99.90;;;;;;5044593;28;20501;-72
2022/08/04 06:27:27;;;;;;;10.45;8.05;;;22.00;99.90;;;;;;5058866;28;20512;-72
2022/08/04 06:29:54;;;;;;;11.27;7.60;;;22.20;99.90;;;;;;5060566;28;20119;-72
2022/08/04 06:32:29;;;;;;;14.13;7.53;;;22.40;99.90;;;;;;5064864;28;20047;-72
2022/08/04 06:34:58;;;;;;;10.70;7.50;;;22.60;99.90;;;;;;5064666;28;20040;-72
2022/08/04 06:37:26;;;;;;;10.52;7.40;;;22.90;99.90;;;;;;5066062;28;20044;-72
2022/08/04 06:39:52;;;;;;;10.85;6.95;;;23.00;99.90;;;;;;5051270;28;20094;-72
2022/08/04 06:42:23;;;;;;;14.65;7.32;;;23.20;99.90;;;;;;5060778;28;20040;-72
2022/08/04 06:44:53;;;;;;;10.05;6.25;;;23.40;99.90;;;;;;5053883;28;20075;-72
2022/08/04 06:47:20;;;;;;;9.05;6.10;;;23.50;99.90;;;;;;5062445;28;20052;-72
2022/08/04 06:49:48;;;;;;;9.85;5.88;;;23.70;99.90;;;;;;5056082;28;20082;-72
2022/08/04 06:52:16;;;;;;;11.18;5.32;;;23.80;99.90;;;;;;5067889;28;20044;-72
2022/08/04 06:54:47;;;;;;;7.53;5.20;;;24.10;99.90;;;;;;5065583;28;20056;-72
2022/08/04 06:57:15;;;;;;;8.25;4.43;;;24.30;99.90;;;;;;5063482;28;20045;-72
2022/08/04 06:59:50;;;;;;;9.48;3.80;;;24.50;99.90;;;;;;5062033;28;20064;-72
2022/08/04 07:02:21;;;;;;;8.25;3.60;;;24.60;99.90;;;;;;5066711;28;20067;-72
2022/08/04 07:04:48;;;;;;;6.88;3.33;;;24.80;99.90;;;;;;5057974;28;20045;-72
2022/08/04 07:07:14;;;;;;;9.80;3.45;;;25.00;99.90;;;;;;5046418;28;20078;-72
2022/08/04 07:09:40;;;;;;;7.25;3.35;;;25.20;99.90;;;;;;5055544;28;20475;-72
2022/08/04 07:12:07;;;;;;;10.93;3.50;;;25.40;99.90;;;;;;5059554;28;20123;-72
2022/08/04 07:14:35;;;;;;;7.88;3.22;;;25.50;99.90;;;;;;5039655;28;20623;-72
2022/08/04 07:17:03;;;;;;;9.13;2.88;;;25.60;99.90;;;;;;5062329;28;20050;-72
2022/08/04 07:19:31;;;;;;;8.43;3.10;;;25.60;99.90;;;;;;5047907;28;20048;-72
2022/08/04 07:21:59;;;;;;;7.03;2.95;;;25.70;99.90;;;;;;5065295;28;20036;-72
2022/08/04 07:24:32;;;;;;;7.82;3.10;;;25.70;99.90;;;;;;5064583;28;20053;-72
2022/08/04 07:26:59;;;;;;;11.65;3.22;;;25.80;99.90;;;;;;5065140;28;20045;-68
2022/08/04 07:29:25;;;;;;;8.63;3.42;;;25.80;99.90;;;;;;5066797;28;20119;-66
2022/08/04 07:31:53;;;;;;;11.80;3.33;;;26.00;99.90;;;;;;5062754;28;20040;-66
2022/08/04 07:34:19;;;;;;;6.75;3.03;;;26.20;99.90;;;;;;5058924;28;20051;-67
2022/08/04 07:36:46;;;;;;;9.10;3.13;;;26.30;99.90;;;;;;5058838;28;20041;-67
2022/08/04 07:39:13;;;;;;;8.27;3.03;;;26.50;99.90;;;;;;5067712;28;20101;-67
2022/08/04 07:41:41;;;;;;;8.80;3.10;;;26.70;99.90;;;;;;5059181;28;20052;-68
2022/08/04 07:44:09;;;;;;;8.50;3.20;;;26.90;99.90;;;;;;5066046;28;20055;-66
2022/08/04 07:46:37;;;;;;;7.78;2.90;;;27.10;99.90;;;;;;5063270;28;20047;-65
2022/08/04 07:49:05;;;;;;;9.68;3.70;;;27.10;99.90;;;;;;5069699;28;20049;-66
2022/08/04 07:51:31;;;;;;;7.05;2.95;;;27.30;99.90;;;;;;5059537;28;20047;-67
2022/08/04 07:53:59;;;;;;;7.88;2.78;;;27.40;99.90;;;;;;5059557;28;20374;-69
2022/08/04 07:56:27;;;;;;;13.07;6.43;;;27.50;99.90;;;;;;5059084;28;20045;-69
2022/08/04 07:58:53;;;;;;;6.97;2.15;;;27.70;99.90;;;;;;5056285;28;20056;-71
2022/08/04 08:01:21;;;;;;;9.68;2.47;;;27.80;99.90;;;;;;5055686;28;20048;-71
2022/08/04 08:03:48;;;;;;;9.82;2.53;;;28.00;99.90;;;;;;5061742;28;20151;-71
2022/08/04 08:06:14;;;;;;;7.80;2.20;;;28.20;99.90;;;;;;5044841;28;20060;-71
2022/08/04 08:08:40;;;;;;;7.28;2.42;;;28.30;99.40;;;;;;5061953;28;20105;-72
2022/08/04 08:11:09;;;;;;;5.68;1.98;;;28.30;99.30;;;;;;5064057;28;20408;-72
2022/08/04 08:13:36;;;;;;;4.70;1.95;;;28.50;98.70;;;;;;5062405;28;20040;-72
2022/08/04 08:16:03;;;;;;;6.43;2.47;;;28.80;99.60;;;;;;5051674;28;20041;-72
2022/08/04 08:18:30;;;;;;;8.10;2.10;;;29.20;98.80;;;;;;5046023;28;20051;-72
2022/08/04 08:20:56;;;;;;;7.53;2.28;;;29.60;97.30;;;;;;5051967;28;20079;-71
2022/08/04 08:23:22;;;;;;;6.95;2.00;;;29.70;96.40;;;;;;5056382;28;20444;-71
2022/08/04 08:25:48;;;;;;;9.55;1.83;;;29.70;96.00;;;;;;5056957;28;20116;-71
2022/08/04 08:28:16;;;;;;;5.82;1.85;;;29.70;95.20;;;;;;5055648;28;20049;-71
2022/08/04 08:30:42;;;;;;;7.68;1.40;;;29.80;95.50;;;;;;5063768;28;20044;-71
2022/08/04 08:33:12;;;;;;;3.70;1.58;;;30.00;95.30;;;;;;5061906;28;20060;-71
2022/08/04 08:35:58;;;;;;;6.55;1.83;;;30.30;93.50;;;;;;5061333;28;20040;-71
2022/08/04 08:38:43;;;;;;;6.95;1.73;;;30.50;92.00;;;;;;5057082;28;20041;-71
2022/08/04 08:41:55;;;;;;;8.02;2.00;;;30.90;91.50;;;;;;5064824;28;20036;-72
2022/08/04 08:44:42;;;;;;;7.95;2.25;;;31.20;87.40;;;;;;5063600;28;20071;-72
2022/08/04 08:47:23;;;;;;;6.93;2.30;;;31.40;86.60;;;;;;5055392;28;20033;-71
2022/08/04 08:50:09;;;;;;;7.60;2.10;;;31.20;83.90;;;;;;5058476;28;20037;-71
2022/08/04 08:53:14;;;;;;;6.28;2.10;;;30.80;83.50;;;;;;5065863;28;20177;-71
2022/08/04 08:56:03;;;;;;;6.63;1.90;;;30.90;82.90;;;;;;5045578;28;20044;-71
2022/08/04 08:58:40;;;;;;;9.05;2.40;;;31.10;83.50;;;;;;5060212;28;20095;-71
2022/08/04 09:01:37;;;;;;;9.60;2.50;;;31.10;82.50;;;;;;5066087;28;20052;-71
2022/08/04 09:04:13;;;;;;;7.90;2.67;;;31.20;85.50;;;;;;5060061;28;20052;-70
2022/08/04 09:06:57;;;;;;;5.78;2.60;;;31.50;81.70;;;;;;5050093;28;20056;-70
2022/08/04 09:09:42;;;;;;;6.93;2.88;;;31.70;78.70;;;;;;5051984;28;20103;-70
2022/08/04 09:12:21;;;;;;;6.45;2.40;;;31.60;80.90;;;;;;5058626;28;20097;-71
2022/08/04 09:15:03;;;;;;;6.93;2.95;;;31.70;82.70;;;;;;5039047;28;20060;-71
2022/08/04 09:17:52;;;;;;;7.03;2.67;;;31.90;82.30;;;;;;5061312;28;20094;-71
2022/08/04 09:20:29;;;;;;;7.47;2.55;;;32.40;79.90;;;;;;5061551;28;20033;-71
2022/08/04 09:23:03;;;;;;;6.10;2.47;;;32.80;78.50;;;;;;5063388;28;20028;-71
2022/08/04 09:25:46;;;;;;;7.72;2.90;;;32.80;78.00;;;;;;5066731;28;20089;-71
2022/08/04 09:28:28;;;;;;;6.65;2.90;;;33.00;79.30;;;;;;5059249;28;20053;-71
2022/08/04 09:31:02;;;;;;;7.32;3.10;;;33.30;72.70;;;;;;5057368;28;20554;-71
2022/08/04 09:34:06;;;;;;;5.57;2.90;;;33.40;74.20;;;;;;5057067;28;20574;-71
2022/08/04 09:36:38;;;;;;;4.70;2.25;;;33.30;71.90;;;;;;5068535;28;20047;-71
2022/08/04 09:39:22;;;;;;;5.87;2.50;;;33.00;73.40;;;;;;5059299;28;20048;-71
2022/08/04 09:41:58;;;;;;;5.55;2.10;;;32.90;73.30;;;;;;5066991;28;20039;-71
2022/08/04 09:44:53;;;;;;;6.25;2.72;;;32.80;73.30;;;;;;5062316;28;20516;-71
2022/08/04 09:47:53;;;;;;;8.95;3.13;;;32.60;71.30;;;;;;5048808;28;20529;-71
2022/08/04 09:50:29;;;;;;;4.95;2.22;;;32.20;72.10;;;;;;5038315;28;20091;-71
2022/08/04 09:53:16;;;;;;;7.28;2.05;;;31.80;73.50;;;;;;5057855;28;20057;-71
2022/08/04 09:55:49;;;;;;;9.40;2.88;;;31.50;74.00;;;;;;5051833;28;20071;-71
2022/08/04 09:58:27;;;;;;;7.13;2.65;;;31.20;76.30;;;;;;5055240;28;20051;-72
2022/08/04 10:01:01;;;;;;;4.90;2.17;;;31.10;76.40;;;;;;5052886;28;20040;-72
2022/08/04 10:03:33;;;;;;;6.75;2.20;;;30.90;77.00;;;;;;5060294;28;20110;-71
2022/08/04 10:06:18;;;;;;;5.18;2.10;;;30.70;77.70;;;;;;5059666;28;20044;-72
2022/08/04 10:09:17;;;;;;;4.85;2.03;;;30.50;78.60;;;;;;5062552;28;20085;-72
2022/08/04 10:12:18;;;;;;;4.63;1.70;;;30.40;77.30;;;;;;5060103;28;20044;-72
2022/08/04 10:15:15;;;;;;;4.88;1.48;;;30.40;76.40;;;;;;5037036;28;20103;-72
2022/08/04 10:17:55;;;;;;;6.63;1.83;;;30.70;76.60;;;;;;5065735;28;20488;-72
2022/08/04 10:20:30;;;;;;;4.65;1.20;;;30.90;75.40;;;;;;5060101;28;20075;-71
2022/08/04 10:23:33;;;;;;;5.32;1.35;;;30.90;73.20;;;;;;5058729;28;20468;-72
2022/08/04 10:26:18;;;;;;;6.32;1.77;;;30.80;73.60;;;;;;5049919;28;20040;-72
2022/08/04 10:28:50;;;;;;;4.47;1.52;;;30.60;74.30;;;;;;5059728;28;20087;-72
2022/08/04 10:31:25;;;;;;;6.20;1.73;;;30.70;76.80;;;;;;5075188;28;20080;-72
2022/08/04 10:34:15;;;;;;;4.97;1.38;;;31.00;75.30;;;;;;5065302;28;20044;-72
2022/08/04 10:36:54;;;;;;;4.70;1.23;;;31.10;75.30;;;;;;5061994;28;20056;-72
2022/08/04 10:39:31;;;;;;;4.25;1.25;;;31.30;74.40;;;;;;5063444;28;20045;-72
2022/08/04 10:42:20;;;;;;;4.18;1.08;;;31.50;75.00;;;;;;5052543;28;20048;-72
2022/08/04 10:44:51;;;;;;;3.15;0.95;;;31.70;70.90;;;;;;5060547;28;20049;-72
2022/08/04 10:47:23;;;;;;;5.22;1.05;;;31.70;70.80;;;;;;5057187;28;20553;-72
2022/08/04 10:49:58;;;;;;;4.13;1.30;;;31.70;71.40;;;;;;5061102;28;20045;-72
2022/08/04 10:52:30;;;;;;;4.82;1.00;;;31.70;69.80;;;;;;5057032;28;20111;-73
2022/08/04 10:55:14;;;;;;;4.68;1.10;;;31.50;69.20;;;;;;5064058;28;20159;-72
2022/08/04 10:57:43;;;;;;;5.68;1.30;;;31.40;70.40;;;;;;5062066;28;20052;-72
2022/08/04 11:00:21;;;;;;;6.68;1.20;;;31.20;71.80;;;;;;5066914;28;20422;-71
2022/08/04 11:03:12;;;;;;;7.30;1.35;;;31.20;71.50;;;;;;5061489;28;20055;-72
2022/08/04 11:05:49;;;;;;;6.68;1.02;;;31.00;70.70;;;;;;5063217;28;20102;-72
2022/08/04 11:08:22;;;;;;;2.78;0.80;;;30.70;70.40;;;;;;5069328;28;20048;-71
2022/08/04 11:11:04;;;;;;;5.75;1.20;;;30.60;70.10;;;;;;5060692;28;20040;-71
2022/08/04 11:13:54;;;;;;;8.68;1.45;;;30.70;69.10;;;;;;5068599;28;20041;-71
2022/08/04 11:16:28;;;;;;;7.80;1.30;;;30.80;69.60;;;;;;5063082;28;20129;-71
2022/08/04 11:19:07;;;;;;;5.93;1.02;;;30.90;71.50;;;;;;5058970;28;20075;-71
2022/08/04 11:21:38;;;;;;;4.72;1.25;;;31.00;71.10;;;;;;5066488;28;20037;-71
2022/08/04 11:24:34;;;;;;;6.03;1.58;;;31.00;71.60;;;;;;5063855;28;20041;-71
2022/08/04 11:27:04;;;;;;;6.38;1.52;;;30.80;68.60;;;;;;5063414;28;20572;-71
2022/08/04 11:29:41;;;;;;;6.13;1.48;;;30.30;70.50;;;;;;5062848;28;20110;-71
2022/08/04 11:32:16;;;;;;;4.07;1.27;;;30.00;71.60;;;;;;5056950;28;20506;-71
2022/08/04 11:34:51;;;;;;;5.57;1.30;;;29.90;72.60;;;;;;5058884;28;20040;-71
2022/08/04 11:37:25;;;;;;;7.18;1.30;;;30.00;73.80;;;;;;5060139;28;20086;-71
2022/08/04 11:40:10;;;;;;;6.95;1.27;;;29.90;73.30;;;;;;5041755;28;20550;-70
2022/08/04 11:42:47;;;;;;;6.10;1.20;;;29.80;75.30;;;;;;5064697;28;20036;-70
2022/08/04 11:45:16;;;;;;;3.30;1.02;;;29.70;76.60;;;;;;5062061;28;20041;-72
2022/08/04 11:47:59;;;;;;;5.38;1.25;;;29.60;76.40;;;;;;5066399;28;20761;-72
2022/08/04 11:50:37;;;;;;;5.95;1.45;;;29.40;76.90;;;;;;5069581;28;20044;-72
2022/08/04 11:53:05;;;;;;;4.30;0.95;;;29.10;77.60;;;;;;5059133;28;20535;-72
2022/08/04 11:55:32;;;;;;;3.35;1.00;;;28.90;77.70;;;;;;5066524;28;20053;-71
2022/08/04 11:57:58;;;;;;;4.60;1.00;;;28.60;78.00;;;;;;5038984;28;20116;-71
2022/08/04 12:00:28;;;;;;;4.30;0.98;;;28.40;77.90;;;;;;5055582;28;20092;-72
2022/08/04 12:03:17;;;;;;;4.10;0.82;;;28.20;80.00;;;;;;5063735;28;20036;-72
2022/08/04 12:05:48;;;;;;;2.85;0.63;;;28.10;80.10;;;;;;5047633;28;20437;-72
2022/08/04 12:08:44;;;;;;;1.98;0.50;;;27.90;79.30;;;;;;5050706;28;20052;-72
2022/08/04 12:11:33;;;;;;;3.42;0.70;;;27.70;78.70;;;;;;5062547;28;20040;-71
2022/08/04 12:14:20;;;;;;;4.05;1.35;;;27.50;77.80;;;;;;5064318;28;20041;-72
2022/08/04 12:16:58;;;;;;;2.63;0.70;;;27.40;77.60;;;;;;5048363;28;20041;-72
2022/08/04 12:19:32;;;;;;;5.22;0.70;;;27.20;77.90;;;;;;5054977;28;20036;-72
2022/08/04 12:22:02;;;;;;;1.83;0.60;;;27.00;78.50;;;;;;5062118;28;20033;-72
2022/08/04 12:24:46;;;;;;;5.05;1.17;;;26.90;79.40;;;;;;5055320;28;20090;-72
2022/08/04 12:27:30;;;;;;;5.90;0.67;;;26.80;79.40;;;;;;5062718;28;20093;-71
2022/08/04 12:29:56;;;;;;;3.30;0.93;;;26.60;80.80;;;;;;5062666;28;20044;-72
2022/08/04 12:32:31;;;;;;;5.03;0.85;;;26.40;80.60;;;;;;5066872;28;20040;-72
2022/08/04 12:35:19;;;;;;;3.20;0.85;;;26.30;80.80;;;;;;5059834;28;20049;-72
2022/08/04 12:37:48;;;;;;;3.03;0.80;;;26.30;82.70;;;;;;5061376;28;20032;-71
2022/08/04 12:40:26;;;;;;;4.00;1.00;;;26.30;84.10;;;;;;5056499;28;20091;-71
2022/08/04 12:43:13;;;;;;;1.95;0.93;;;26.30;84.20;;;;;;5058081;28;20476;-71
2022/08/04 12:45:49;;;;;;;2.95;0.90;;;26.40;86.50;;;;;;5053241;28;20562;-71
2022/08/04 12:48:20;;;;;;;3.75;0.50;;;26.40;86.50;;;;;;5056942;28;20446;-72
2022/08/04 12:50:54;;;;;;;4.97;0.70;;;26.40;86.40;;;;;;5056818;28;20404;-72
2022/08/04 12:53:28;;;;;;;3.25;0.63;;;26.50;85.50;;;;;;5059333;28;20064;-73
2022/08/04 12:55:57;;;;;;;2.50;0.57;;;26.60;84.90;;;;;;5042927;28;20045;-72
2022/08/04 12:58:26;;;;;;;1.92;0.77;;;26.60;83.50;;;;;;5062300;28;20033;-72
2022/08/04 13:00:57;;;;;;;3.08;0.60;;;26.70;84.60;;;;;;5062548;28;20490;-72
2022/08/04 13:03:28;;;;;;;2.10;0.60;;;26.80;85.30;;;;;;5067833;28;20036;-72
2022/08/04 13:05:54;;;;;;;3.72;0.50;;;26.90;83.90;;;;;;5062796;28;20546;-71
2022/08/04 13:08:21;;;;;;;3.53;0.77;;;26.90;83.40;;;;;;5067832;28;20091;-72
2022/08/04 13:10:50;;;;;;;5.05;0.75;;;27.20;83.80;;;;;;5056173;28;20050;-72
2022/08/04 13:13:24;;;;;;;1.85;0.50;;;27.60;85.40;;;;;;5056680;28;20050;-72
2022/08/04 13:16:04;;;;;;;1.50;0.60;;;27.90;82.80;;;;;;5059208;28;20041;-72
2022/08/04 13:18:38;;;;;;;1.58;0.50;;;28.20;81.00;;;;;;5060393;28;20415;-72
2022/08/04 13:21:25;;;;;;;2.90;0.60;;;28.30;77.10;;;;;;5061999;28;20072;-72
2022/08/04 13:24:15;;;;;;;1.23;0.50;;;28.30;76.80;;;;;;5064857;28;20041;-71
2022/08/04 13:27:11;;;;;;;1.35;0.50;;;28.70;76.70;;;;;;5063492;28;20106;-71
2022/08/04 13:29:44;;;;;;;2.03;0.40;;;29.00;74.80;;;;;;5060489;28;20417;-71
2022/08/04 13:32:14;;;;;;;3.20;0.45;;;29.30;74.80;;;;;;5053159;28;20048;-71
2022/08/04 13:34:42;;;;;;;1.10;0.50;;;29.50;71.90;;;;;;5043586;28;20150;-71
2022/08/04 13:37:09;;;;;;;1.52;0.52;;;29.40;71.80;;;;;;5054956;28;20055;-72
2022/08/04 13:39:36;;;;;;;2.70;0.65;;;29.50;72.10;;;;;;5060082;28;20033;-71